Gazi — 9HA2542 — position and weather

sailwx.info

Track history (hours):
 
Tides and Currents Weather Stations Pressure Air Temp Water Temp Dewpoint Dewpoint Depression Visibility Wind Speed Wind Dir Waves Ship Positions

Gazi

Last reported at 2014-Oct-17 18:06 UTC. Time now 2014-Oct-24 10:20 UTC.
Position N 35°32' E 027°38'.

Length 146 m; draft 8 m.

Type: Ship. MMSI: 248841000.

Date/timePositionNaut miles runAvg speedWind from/ knotsBaromVisibWave heightAir tempDewpointWater temp
2014-Oct-17 18:06N 35°32' E 027°38'911.1
2014-Oct-17 17:19N 35°40' E 027°33'1111.3
2014-Oct-17 16:21N 35°50' E 027°27'911.1
2014-Oct-17 15:33N 35°57' E 027°23'2211.1
2014-Oct-17 13:32N 36°18' E 027°11'1111.1
2014-Oct-17 12:33N 36°27' E 027°05'1211.2
2014-Oct-17 11:26N 36°38' E 026°56'1011.5
2014-Oct-17 10:33N 36°46' E 026°48'1211.4
2014-Oct-17 09:31N 36°55' E 026°40'1210.9
2014-Oct-17 08:25N 37°05' E 026°30'1011.0
2014-Oct-17 07:33N 37°11' E 026°21'1110.8
2014-Oct-17 06:33N 37°18' E 026°11'1110.8
2014-Oct-17 05:33N 37°25' E 026°00'1010.5
2014-Oct-17 04:33N 37°33' E 025°53'1411.2
2014-Oct-17 03:19N 37°47' E 025°50'1910.9
2014-Oct-17 01:33N 38°06' E 025°48'1010.4
2014-Oct-17 00:33N 38°16' E 025°46'1010.1
2014-Oct-16 23:33N 38°26' E 025°45'7510.4
2014-Oct-16 16:16N 39°42' E 025°45'811.0
2014-Oct-16 15:33N 39°50' E 025°47'1310.5
2014-Oct-16 14:16N 40°00' E 025°57'163 9.2
2014-Oct-15 20:31N 41°15' E 029°08'10 5.0
2014-Oct-15 18:33N 41°25' E 029°09'0 0.1
2014-Oct-15 16:32N 41°25' E 029°09'0 0.2
2014-Oct-15 15:33N 41°25' E 029°09'2 0.4
2014-Oct-15 11:18N 41°26' E 029°10'15 8.7
2014-Oct-15 09:33N 41°35' E 029°27'25211.2
2014-Oct-14 11:11N 43°48' E 034°17'711.0
2014-Oct-14 10:31N 43°52' E 034°26'1111.2
2014-Oct-14 09:32N 43°59' E 034°38'1111.2
2014-Oct-14 08:33N 44°05' E 034°51'1211.4
2014-Oct-14 07:31N 44°11' E 035°05'1311.5
2014-Oct-14 06:25N 44°18' E 035°20'1011.7
2014-Oct-14 05:33N 44°24' E 035°31'1311.9
2014-Oct-14 04:27N 44°31' E 035°47'1111.9
2014-Oct-14 03:33N 44°37' E 035°59'1211.8
2014-Oct-14 02:33N 44°43' E 036°13'1211.2
2014-Oct-14 01:27N 44°50' E 036°28'1410.7
2014-Oct-14 00:07N 45°05' E 036°30'  
2014-Oct-10 15:05N 45°10' E 036°34'0 0.0
2014-Oct-10 12:25N 45°10' E 036°34'  
Track history (hours):
 
Tides and Currents Weather Stations Pressure Air Temp Water Temp Dewpoint Dewpoint Depression Visibility Wind Speed Wind Dir Waves Ship Positions

Gazi

Last reported at 2014-Oct-17 18:06 UTC. Time now 2014-Oct-24 10:20 UTC.
Position N 35°32' E 027°38'.

Length 146 m; draft 8 m.

Type: Ship. MMSI: 248841000.

Date/timePositionNaut miles runAvg speedWind from/ knotsBaromVisibWave heightAir tempDewpointWater temp
2014-Oct-17 18:06N 35°32' E 027°38'911.1
2014-Oct-17 17:19N 35°40' E 027°33'1111.3
2014-Oct-17 16:21N 35°50' E 027°27'911.1
2014-Oct-17 15:33N 35°57' E 027°23'2211.1
2014-Oct-17 13:32N 36°18' E 027°11'1111.1
2014-Oct-17 12:33N 36°27' E 027°05'1211.2
2014-Oct-17 11:26N 36°38' E 026°56'1011.5
2014-Oct-17 10:33N 36°46' E 026°48'1211.4
2014-Oct-17 09:31N 36°55' E 026°40'1210.9
2014-Oct-17 08:25N 37°05' E 026°30'1011.0
2014-Oct-17 07:33N 37°11' E 026°21'1110.8
2014-Oct-17 06:33N 37°18' E 026°11'1110.8
2014-Oct-17 05:33N 37°25' E 026°00'1010.5
2014-Oct-17 04:33N 37°33' E 025°53'1411.2
2014-Oct-17 03:19N 37°47' E 025°50'1910.9
2014-Oct-17 01:33N 38°06' E 025°48'1010.4
2014-Oct-17 00:33N 38°16' E 025°46'1010.1
2014-Oct-16 23:33N 38°26' E 025°45'7510.4
2014-Oct-16 16:16N 39°42' E 025°45'811.0
2014-Oct-16 15:33N 39°50' E 025°47'1310.5
2014-Oct-16 14:16N 40°00' E 025°57'163 9.2
2014-Oct-15 20:31N 41°15' E 029°08'10 5.0
2014-Oct-15 18:33N 41°25' E 029°09'0 0.1
2014-Oct-15 16:32N 41°25' E 029°09'0 0.2
2014-Oct-15 15:33N 41°25' E 029°09'2 0.4
2014-Oct-15 11:18N 41°26' E 029°10'15 8.7
2014-Oct-15 09:33N 41°35' E 029°27'25211.2
2014-Oct-14 11:11N 43°48' E 034°17'711.0
2014-Oct-14 10:31N 43°52' E 034°26'1111.2
2014-Oct-14 09:32N 43°59' E 034°38'1111.2
2014-Oct-14 08:33N 44°05' E 034°51'1211.4
2014-Oct-14 07:31N 44°11' E 035°05'1311.5
2014-Oct-14 06:25N 44°18' E 035°20'1011.7
2014-Oct-14 05:33N 44°24' E 035°31'1311.9
2014-Oct-14 04:27N 44°31' E 035°47'1111.9
2014-Oct-14 03:33N 44°37' E 035°59'1211.8
2014-Oct-14 02:33N 44°43' E 036°13'1211.2
2014-Oct-14 01:27N 44°50' E 036°28'1410.7
2014-Oct-14 00:07N 45°05' E 036°30'  
2014-Oct-10 15:05N 45°10' E 036°34'0 0.0
2014-Oct-10 12:25N 45°10' E 036°34'  

Dump ship's entire track history